createdAt,value
2023-07-16T00:00:57.408Z,20.79
2023-07-16T00:05:59.700Z,20.89
2023-07-16T00:11:01.992Z,20.52
2023-07-16T00:16:04.524Z,20.46
2023-07-16T00:21:06.815Z,20.60
2023-07-16T00:26:09.106Z,20.40
2023-07-16T00:31:12.064Z,20.15
2023-07-16T00:36:14.672Z,20.11
2023-07-16T00:41:17.339Z,19.93
2023-07-16T00:46:19.863Z,19.92
2023-07-16T00:51:23.889Z,20.18
2023-07-16T00:56:26.909Z,20.05
2023-07-16T01:01:29.512Z,20.15
2023-07-16T01:06:41.055Z,19.96
2023-07-16T01:11:45.108Z,19.95
2023-07-16T01:16:47.588Z,19.85
2023-07-16T01:21:52.782Z,19.76
2023-07-16T01:27:16.012Z,19.62
2023-07-16T01:32:19.261Z,19.51
2023-07-16T01:37:21.923Z,19.46
2023-07-16T01:42:24.274Z,19.65
2023-07-16T01:48:00.268Z,19.67
2023-07-16T01:53:02.636Z,19.62
2023-07-16T01:58:06.662Z,19.94
2023-07-16T02:03:09.341Z,19.58
2023-07-16T02:08:12.023Z,19.70
2023-07-16T02:13:14.389Z,19.71
2023-07-16T02:18:16.710Z,19.92
2023-07-16T02:23:19.031Z,19.72
2023-07-16T02:28:21.303Z,19.70
2023-07-16T02:33:23.678Z,19.60
2023-07-16T02:38:25.945Z,19.79
2023-07-16T02:43:28.322Z,19.70
2023-07-16T02:48:30.577Z,19.76
2023-07-16T02:53:32.768Z,19.81
2023-07-16T02:58:35.019Z,20.17
2023-07-16T03:03:37.303Z,20.19
2023-07-16T03:08:39.599Z,20.22
2023-07-16T03:13:41.880Z,20.10
2023-07-16T03:18:46.556Z,20.19
2023-07-16T03:23:48.858Z,20.26
2023-07-16T03:28:51.353Z,19.63
2023-07-16T03:33:54.139Z,19.25
2023-07-16T03:38:58.161Z,19.85
2023-07-16T03:44:00.524Z,19.94
2023-07-16T03:49:02.859Z,19.39
2023-07-16T03:54:05.177Z,19.11
2023-07-16T03:59:08.999Z,19.27
2023-07-16T04:04:11.406Z,19.36
2023-07-16T04:09:14.223Z,19.20
2023-07-16T04:14:16.486Z,19.20
2023-07-16T04:19:18.903Z,19.22
2023-07-16T04:24:21.210Z,19.17
2023-07-16T04:29:23.869Z,19.43
2023-07-16T04:34:26.195Z,19.16
2023-07-16T04:39:28.445Z,19.11
2023-07-16T04:44:30.731Z,19.10
2023-07-16T04:49:35.548Z,19.18
2023-07-16T04:54:39.099Z,19.21
2023-07-16T04:59:41.409Z,19.24
2023-07-16T05:04:45.229Z,19.18
2023-07-16T05:09:47.503Z,19.09
2023-07-16T05:14:50.877Z,18.94
2023-07-16T05:19:53.238Z,19.54
2023-07-16T05:24:55.477Z,20.36
2023-07-16T05:29:57.900Z,20.20
2023-07-16T05:35:03.126Z,19.58
2023-07-16T05:40:09.727Z,20.73
2023-07-16T05:45:12.132Z,24.22
2023-07-16T05:50:16.656Z,22.78
2023-07-16T05:55:19.479Z,23.00
2023-07-16T06:00:21.850Z,22.89
2023-07-16T06:05:25.728Z,23.60
2023-07-16T06:10:28.344Z,23.00
2023-07-16T06:15:30.633Z,22.48
2023-07-16T06:20:32.925Z,22.74
2023-07-16T06:25:35.170Z,22.48
2023-07-16T06:30:38.113Z,22.93
2023-07-16T06:35:40.433Z,23.42
2023-07-16T06:40:50.424Z,23.11
2023-07-16T06:45:52.923Z,23.01
2023-07-16T06:50:55.214Z,23.21
2023-07-16T06:55:57.463Z,23.61
2023-07-16T07:00:59.844Z,23.95
2023-07-16T07:06:05.302Z,23.17
2023-07-16T07:11:07.574Z,23.37
2023-07-16T07:16:09.777Z,23.74
2023-07-16T07:21:12.102Z,23.76
2023-07-16T07:26:14.564Z,23.32
2023-07-16T07:31:16.916Z,23.85
2023-07-16T07:36:19.623Z,23.71
2023-07-16T07:41:22.043Z,23.74
2023-07-16T07:46:24.351Z,24.09
2023-07-16T07:51:26.705Z,24.51
2023-07-16T07:56:29.077Z,24.53
2023-07-16T08:01:32.086Z,24.03
2023-07-16T08:06:34.383Z,24.25
2023-07-16T08:11:36.658Z,24.46
2023-07-16T08:16:39.003Z,23.39
2023-07-16T08:21:41.164Z,23.30
2023-07-16T08:26:43.461Z,24.20
2023-07-16T08:31:45.711Z,24.78
2023-07-16T08:36:48.006Z,24.33
2023-07-16T08:41:50.163Z,24.80
2023-07-16T08:46:53.489Z,24.52
2023-07-16T08:51:56.683Z,24.81
2023-07-16T08:56:58.990Z,25.51
2023-07-16T09:02:01.401Z,25.48
2023-07-16T09:07:03.791Z,25.52
2023-07-16T09:12:06.833Z,23.83
2023-07-16T09:17:09.482Z,23.70
2023-07-16T09:22:11.774Z,24.17
2023-07-16T09:27:15.016Z,24.49
2023-07-16T09:32:17.323Z,23.75
2023-07-16T09:37:20.891Z,24.80
2023-07-16T09:42:25.730Z,24.36
2023-07-16T09:47:28.051Z,24.25
2023-07-16T09:52:30.586Z,24.10
2023-07-16T09:57:38.490Z,24.16
2023-07-16T10:02:42.169Z,24.13
2023-07-16T10:07:52.191Z,24.49
2023-07-16T10:13:04.305Z,25.27
2023-07-16T10:18:06.626Z,25.33
2023-07-16T10:23:14.794Z,25.90
2023-07-16T10:28:17.010Z,26.17
2023-07-16T10:33:19.376Z,26.47
2023-07-16T10:38:21.724Z,25.61
2023-07-16T10:43:26.231Z,26.47
2023-07-16T10:48:28.530Z,25.86
2023-07-16T10:53:30.744Z,25.21
2023-07-16T10:58:32.943Z,26.62
2023-07-16T11:03:36.798Z,26.92
2023-07-16T11:08:39.421Z,26.08
2023-07-16T11:13:41.656Z,24.91
2023-07-16T11:18:45.199Z,26.54
2023-07-16T11:23:47.548Z,26.75
2023-07-16T11:28:52.583Z,26.24
2023-07-16T11:33:54.896Z,26.24
2023-07-16T11:38:57.232Z,26.68
2023-07-16T11:44:02.980Z,26.86
2023-07-16T11:49:05.272Z,26.53
2023-07-16T11:54:07.544Z,27.46
2023-07-16T11:59:10.940Z,27.11
2023-07-16T12:04:15.080Z,27.79
2023-07-16T12:09:17.428Z,27.41
2023-07-16T12:14:19.662Z,27.46
2023-07-16T12:19:22.100Z,27.47
2023-07-16T12:24:24.337Z,28.13
2023-07-16T12:29:26.543Z,27.52
2023-07-16T12:34:28.759Z,28.31
2023-07-16T12:39:31.093Z,28.60
2023-07-16T12:44:33.378Z,27.62
2023-07-16T12:49:36.398Z,28.12
2023-07-16T12:54:38.731Z,27.98
2023-07-16T12:59:41.037Z,28.17
2023-07-16T13:04:43.742Z,28.47
2023-07-16T13:09:46.018Z,28.45
2023-07-16T13:14:48.201Z,27.38
2023-07-16T13:19:50.343Z,28.13
2023-07-16T13:24:52.616Z,28.45
2023-07-16T13:29:54.768Z,28.98
2023-07-16T13:34:57.022Z,28.76
2023-07-16T13:39:59.294Z,28.98
2023-07-16T13:45:01.524Z,28.49
2023-07-16T13:50:03.957Z,28.44
2023-07-16T13:55:07.318Z,28.76
2023-07-16T14:00:13.325Z,28.71
2023-07-16T14:05:15.678Z,28.43
2023-07-16T14:10:17.991Z,29.23
2023-07-16T14:15:20.422Z,29.11
2023-07-16T14:20:22.663Z,29.36
2023-07-16T14:25:24.908Z,29.30
2023-07-16T14:30:27.171Z,28.88
2023-07-16T14:35:36.476Z,29.35
2023-07-16T14:40:40.363Z,29.33
2023-07-16T14:45:42.777Z,28.88
2023-07-16T14:50:45.039Z,29.15
2023-07-16T14:55:51.612Z,29.01
2023-07-16T15:00:53.889Z,29.04
2023-07-16T15:06:02.331Z,29.38
2023-07-16T15:11:05.247Z,29.94
2023-07-16T15:16:08.643Z,29.53
2023-07-16T15:21:11.191Z,29.58
2023-07-16T15:26:14.445Z,28.45
2023-07-16T15:31:17.115Z,29.37
2023-07-16T15:36:19.714Z,29.51
2023-07-16T15:41:26.398Z,29.39
2023-07-16T15:46:29.246Z,29.62
2023-07-16T15:51:31.783Z,29.32
2023-07-16T15:56:34.129Z,29.32
2023-07-16T16:01:36.445Z,28.31
2023-07-16T16:06:40.026Z,28.29
2023-07-16T16:11:42.396Z,28.50
2023-07-16T16:16:57.047Z,28.89
2023-07-16T16:22:06.976Z,28.89
2023-07-16T16:27:09.658Z,28.77
2023-07-16T16:32:11.852Z,28.86
2023-07-16T16:37:13.996Z,28.58
2023-07-16T16:42:16.342Z,28.36
2023-07-16T16:47:18.846Z,28.56
2023-07-16T16:52:21.120Z,28.61
2023-07-16T16:57:23.455Z,28.78
2023-07-16T17:02:25.902Z,28.12
2023-07-16T17:07:28.079Z,28.08
2023-07-16T17:12:30.335Z,27.64
2023-07-16T17:17:32.619Z,27.87
2023-07-16T17:22:34.932Z,26.98
2023-07-16T17:27:40.673Z,27.16
2023-07-16T17:32:42.870Z,27.01
2023-07-16T17:37:45.586Z,27.23
2023-07-16T17:42:51.463Z,26.96
2023-07-16T17:47:55.699Z,26.87
2023-07-16T17:53:03.604Z,26.58
2023-07-16T17:58:06.711Z,26.88
2023-07-16T18:03:09.547Z,26.80
2023-07-16T18:08:11.917Z,26.84
2023-07-16T18:13:14.143Z,26.40
2023-07-16T18:18:16.412Z,26.45
2023-07-16T18:23:19.297Z,26.09
2023-07-16T18:28:22.156Z,25.87
2023-07-16T18:33:24.710Z,25.80
2023-07-16T18:38:27.170Z,25.46
2023-07-16T18:43:30.316Z,25.56
2023-07-16T18:48:33.224Z,25.67
2023-07-16T18:53:36.642Z,25.61
2023-07-16T18:58:38.937Z,25.41
2023-07-16T19:03:41.242Z,25.94
2023-07-16T19:08:43.463Z,25.49
2023-07-16T19:13:45.625Z,25.61
2023-07-16T19:18:48.384Z,25.24
2023-07-16T19:23:50.571Z,25.16
2023-07-16T19:28:54.599Z,24.99
2023-07-16T19:33:56.793Z,24.98
2023-07-16T19:38:58.974Z,25.14
2023-07-16T19:44:01.559Z,25.02
2023-07-16T19:49:05.206Z,24.87
2023-07-16T19:54:08.198Z,25.02
2023-07-16T19:59:10.578Z,24.50
2023-07-16T20:04:12.881Z,24.21
2023-07-16T20:09:15.921Z,23.89
2023-07-16T20:14:18.214Z,23.95
2023-07-16T20:19:20.754Z,23.64
2023-07-16T20:24:22.949Z,23.77
2023-07-16T20:29:25.121Z,23.40
2023-07-16T20:34:28.010Z,23.49
2023-07-16T20:39:31.196Z,23.28
2023-07-16T20:44:33.366Z,23.39
2023-07-16T20:49:38.011Z,23.35
2023-07-16T20:54:40.194Z,23.45
2023-07-16T20:59:43.566Z,23.58
2023-07-16T21:04:46.142Z,23.66
2023-07-16T21:09:48.387Z,23.33
2023-07-16T21:14:50.723Z,23.64
2023-07-16T21:19:54.206Z,23.65
2023-07-16T21:24:57.826Z,23.75
2023-07-16T21:30:00.238Z,23.23
2023-07-16T21:35:02.476Z,23.56
2023-07-16T21:40:05.612Z,23.66
2023-07-16T21:45:08.878Z,23.40
2023-07-16T21:50:11.991Z,23.83
2023-07-16T21:55:14.329Z,23.18
2023-07-16T22:00:18.302Z,22.88
2023-07-16T22:05:20.682Z,22.65
2023-07-16T22:10:23.066Z,23.02
2023-07-16T22:15:25.429Z,22.65
2023-07-16T22:20:28.405Z,23.16
2023-07-16T22:25:30.697Z,22.97
2023-07-16T22:30:32.986Z,23.00
2023-07-16T22:35:35.184Z,22.73
2023-07-16T22:40:37.532Z,22.65
2023-07-16T22:45:42.331Z,22.53
2023-07-16T22:50:45.940Z,22.72
2023-07-16T22:55:49.447Z,22.53
2023-07-16T23:00:51.815Z,22.45
2023-07-16T23:05:54.231Z,22.65
2023-07-16T23:10:57.263Z,22.13
2023-07-16T23:16:00.359Z,22.09
2023-07-16T23:21:02.731Z,23.05
2023-07-16T23:31:42.699Z,22.27
2023-07-16T23:36:44.866Z,22.38
2023-07-16T23:41:47.046Z,22.59
2023-07-16T23:46:49.313Z,22.48
2023-07-16T23:51:51.693Z,22.63
2023-07-16T23:56:54.157Z,22.43
